Brookhaven Weather

Current Time: 15:05 Zulu

HWV METARs

Local Time Temperature Dew Point Wind Direction Wind Speed Wind Gust Sky Vis.
5/21/2019 2:56:00 PM 16.7° c 3.9° c 310° 17 kt 24kt CLR 10.0 sm
5/21/2019 1:56:00 PM 16.1° c 4.4° c 330° 15 kt 23kt CLR 10.0 sm
5/21/2019 12:56:00 PM 16.1° c 4.4° c 330° 17 kt 24kt FEW 4300 ft AGL 10.0 sm
5/21/2019 11:56:00 AM 15.6° c 5.0° c 320° 18 kt 26kt BKN 4800 ft AGL 10.0 sm

ISP TAF:

KISP 211346Z 2114/2212 31018G27KT P6SM FEW050 
FM212200 32015G20KT P6SM FEW250 
FM220100 32008KT P6SM FEW250 
FM220700 32005KT P6SM FEW250
Weather data provided by aviationweather.gov. Pilots must verify weather before flying.